createdAt,value
2023-03-04T00:01:14.068Z,100.00
2023-03-04T00:03:41.984Z,100.00
2023-03-04T00:06:10.974Z,100.00
2023-03-04T00:08:40.227Z,100.00
2023-03-04T00:11:08.041Z,100.00
2023-03-04T00:13:35.980Z,100.00
2023-03-04T00:16:03.849Z,100.00
2023-03-04T00:18:31.755Z,100.00
2023-03-04T00:20:59.665Z,100.00
2023-03-04T00:23:27.532Z,100.00
2023-03-04T00:25:56.694Z,100.00
2023-03-04T00:28:24.691Z,100.00
2023-03-04T00:30:52.662Z,100.00
2023-03-04T00:33:20.543Z,100.00
2023-03-04T00:35:48.499Z,100.00
2023-03-04T00:38:16.423Z,100.00
2023-03-04T00:40:44.279Z,100.00
2023-03-04T00:43:13.523Z,100.00
2023-03-04T00:45:41.448Z,100.00
2023-03-04T00:48:09.444Z,100.00
2023-03-04T00:50:37.499Z,100.00
2023-03-04T00:53:05.522Z,100.00
2023-03-04T00:55:33.437Z,100.00
2023-03-04T00:58:02.625Z,100.00
2023-03-04T01:00:31.915Z,100.00
2023-03-04T01:02:59.871Z,100.00
2023-03-04T01:05:27.901Z,100.00
2023-03-04T01:07:55.899Z,100.00
2023-03-04T01:10:23.939Z,100.00
2023-03-04T01:12:51.930Z,100.00
2023-03-04T01:15:19.998Z,100.00
2023-03-04T01:17:49.655Z,100.00
2023-03-04T01:20:18.351Z,100.00
2023-03-04T01:22:46.358Z,100.00
2023-03-04T01:25:16.070Z,100.00
2023-03-04T01:27:44.002Z,100.00
2023-03-04T01:30:13.774Z,100.00
2023-03-04T01:32:41.819Z,100.00
2023-03-04T01:35:12.637Z,100.00
2023-03-04T01:37:40.641Z,100.00
2023-03-04T01:40:10.170Z,100.00
2023-03-04T01:42:39.397Z,100.00
2023-03-04T01:45:08.780Z,100.00
2023-03-04T01:47:37.498Z,100.00
2023-03-04T01:50:08.831Z,100.00
2023-03-04T01:52:38.627Z,100.00
2023-03-04T01:55:10.976Z,100.00
2023-03-04T01:57:40.583Z,100.00
2023-03-04T02:00:33.862Z,100.00
2023-03-04T02:03:02.515Z,100.00
2023-03-04T02:05:31.108Z,100.00
2023-03-04T02:08:02.589Z,100.00
2023-03-04T02:10:30.732Z,100.00
2023-03-04T02:12:59.836Z,100.00
2023-03-04T02:16:50.649Z,100.00
2023-03-04T02:19:25.147Z,100.00
2023-03-04T02:21:53.119Z,100.00
2023-03-04T02:24:28.817Z,100.00
2023-03-04T02:26:58.184Z,100.00
2023-03-04T02:29:26.129Z,100.00
2023-03-04T02:31:54.953Z,100.00
2023-03-04T02:34:24.448Z,100.00
2023-03-04T02:36:55.804Z,100.00
2023-03-04T02:39:27.112Z,100.00
2023-03-04T02:41:56.380Z,100.00
2023-03-04T02:44:28.396Z,100.00
2023-03-04T02:46:56.969Z,100.00
2023-03-04T02:49:28.039Z,100.00
2023-03-04T02:52:01.026Z,100.00
2023-03-04T02:54:29.639Z,100.00
2023-03-04T02:56:59.601Z,100.00
2023-03-04T02:59:30.541Z,100.00
2023-03-04T03:01:58.942Z,100.00
2023-03-04T03:04:27.538Z,100.00
2023-03-04T03:06:57.027Z,100.00
2023-03-04T03:09:25.298Z,100.00
2023-03-04T03:11:53.209Z,100.00
2023-03-04T03:14:21.231Z,100.00
2023-03-04T03:16:50.608Z,100.00
2023-03-04T03:19:18.532Z,100.00
2023-03-04T03:21:46.616Z,100.00
2023-03-04T03:24:15.312Z,100.00
2023-03-04T03:26:43.273Z,100.00
2023-03-04T03:29:11.115Z,100.00
2023-03-04T03:31:39.050Z,100.00
2023-03-04T03:34:08.775Z,100.00
2023-03-04T03:36:36.944Z,100.00
2023-03-04T03:39:05.500Z,100.00
2023-03-04T03:41:33.386Z,100.00
2023-03-04T03:44:01.859Z,100.00
2023-03-04T03:46:29.981Z,100.00
2023-03-04T03:49:00.041Z,100.00
2023-03-04T03:51:29.605Z,100.00
2023-03-04T03:53:57.507Z,100.00
2023-03-04T03:56:25.379Z,100.00
2023-03-04T03:58:53.249Z,100.00
2023-03-04T04:01:21.270Z,100.00
2023-03-04T04:03:49.228Z,100.00
2023-03-04T04:06:17.162Z,100.00
2023-03-04T04:08:46.422Z,100.00
2023-03-04T04:11:14.589Z,100.00
2023-03-04T04:13:42.599Z,100.00
2023-03-04T04:16:10.920Z,100.00
2023-03-04T04:18:39.002Z,100.00
2023-03-04T04:21:07.385Z,100.00
2023-03-04T04:23:35.591Z,100.00
2023-03-04T04:26:05.166Z,100.00
2023-03-04T04:28:33.077Z,100.00
2023-03-04T04:31:00.942Z,100.00
2023-03-04T04:33:28.910Z,100.00
2023-03-04T04:35:56.800Z,100.00
2023-03-04T04:38:25.935Z,100.00
2023-03-04T04:40:53.807Z,100.00
2023-03-04T04:43:23.091Z,100.00
2023-03-04T04:45:51.007Z,100.00
2023-03-04T04:48:18.942Z,100.00
2023-03-04T04:50:47.042Z,100.00
2023-03-04T04:53:15.109Z,100.00
2023-03-04T04:55:42.956Z,100.00
2023-03-04T04:58:10.824Z,100.00
2023-03-04T05:00:40.149Z,100.00
2023-03-04T05:03:08.166Z,100.00
2023-03-04T05:05:36.120Z,100.00
2023-03-04T05:08:04.108Z,100.00
2023-03-04T05:10:31.979Z,100.00
2023-03-04T05:12:59.876Z,100.00
2023-03-04T05:15:27.795Z,100.00
2023-03-04T05:17:57.500Z,100.00
2023-03-04T05:20:25.703Z,100.00
2023-03-04T05:22:53.604Z,100.00
2023-03-04T05:25:21.513Z,100.00
2023-03-04T05:27:49.437Z,100.00
2023-03-04T05:30:17.515Z,100.00
2023-03-04T05:32:45.425Z,100.00
2023-03-04T05:35:15.742Z,100.00
2023-03-04T05:37:43.719Z,100.00
2023-03-04T05:40:13.210Z,100.00
2023-03-04T05:42:41.157Z,100.00
2023-03-04T05:45:09.997Z,100.00
2023-03-04T05:47:37.889Z,100.00
2023-03-04T05:50:06.388Z,100.00
2023-03-04T05:52:35.648Z,100.00
2023-03-04T05:55:04.661Z,100.00
2023-03-04T05:57:32.648Z,100.00
2023-03-04T06:00:00.602Z,100.00
2023-03-04T06:02:28.579Z,100.00
2023-03-04T06:04:56.646Z,100.00
2023-03-04T06:07:24.615Z,100.00
2023-03-04T06:09:53.917Z,100.00
2023-03-04T06:12:21.854Z,100.00
2023-03-04T06:14:49.809Z,100.00
2023-03-04T06:17:18.001Z,100.00
2023-03-04T06:19:46.124Z,100.00
2023-03-04T06:22:14.049Z,100.00
2023-03-04T06:24:42.094Z,100.00
2023-03-04T06:27:11.563Z,100.00
2023-03-04T06:29:39.518Z,100.00
2023-03-04T06:32:07.549Z,100.00
2023-03-04T06:34:36.314Z,100.00
2023-03-04T06:37:04.300Z,100.00
2023-03-04T06:39:32.880Z,100.00
2023-03-04T06:42:00.761Z,100.00
2023-03-04T06:44:30.186Z,100.00
2023-03-04T06:46:58.097Z,100.00
2023-03-04T06:49:26.003Z,100.00
2023-03-04T06:51:54.069Z,100.00
2023-03-04T06:54:22.160Z,100.00
2023-03-04T06:56:50.133Z,100.00
2023-03-04T06:59:18.012Z,100.00
2023-03-04T07:01:47.313Z,100.00
2023-03-04T07:04:15.808Z,100.00
2023-03-04T07:06:43.767Z,100.00
2023-03-04T07:09:11.683Z,100.00
2023-03-04T07:11:39.602Z,100.00
2023-03-04T07:14:07.516Z,100.00
2023-03-04T07:16:35.452Z,100.00
2023-03-04T07:19:04.840Z,100.00
2023-03-04T07:21:32.708Z,100.00
2023-03-04T07:24:00.837Z,100.00
2023-03-04T07:26:28.789Z,100.00
2023-03-04T07:28:58.467Z,100.00
2023-03-04T07:31:29.995Z,100.00
2023-03-04T07:33:59.203Z,100.00
2023-03-04T07:36:28.638Z,100.00
2023-03-04T07:38:57.655Z,100.00
2023-03-04T07:41:27.653Z,100.00
2023-03-04T07:43:57.451Z,100.00
2023-03-04T07:46:25.765Z,100.00
2023-03-04T07:48:53.685Z,100.00
2023-03-04T07:51:22.683Z,100.00
2023-03-04T07:53:53.331Z,100.00
2023-03-04T07:56:23.540Z,100.00
2023-03-04T07:58:53.618Z,100.00
2023-03-04T08:01:23.304Z,100.00
2023-03-04T08:03:51.280Z,100.00
2023-03-04T08:06:21.158Z,100.00
2023-03-04T08:08:49.663Z,100.00
2023-03-04T08:11:21.056Z,100.00
2023-03-04T08:13:49.597Z,100.00
2023-03-04T08:16:19.480Z,100.00
2023-03-04T08:18:49.405Z,100.00
2023-03-04T08:21:19.391Z,100.00
2023-03-04T08:23:48.684Z,100.00
2023-03-04T08:26:20.143Z,100.00
2023-03-04T08:28:49.545Z,100.00
2023-03-04T08:31:18.694Z,100.00
2023-03-04T08:33:47.015Z,100.00
2023-03-04T08:36:15.759Z,100.00
2023-03-04T08:38:43.859Z,100.00
2023-03-04T08:41:12.045Z,100.00
2023-03-04T08:43:41.548Z,100.00
2023-03-04T08:46:09.592Z,100.00
2023-03-04T08:48:38.509Z,100.00
2023-03-04T08:51:09.816Z,100.00
2023-03-04T08:53:38.466Z,100.00
2023-03-04T08:56:07.258Z,100.00
2023-03-04T08:58:35.164Z,100.00
2023-03-04T09:01:06.029Z,100.00
2023-03-04T09:03:33.973Z,100.00
2023-03-04T09:06:03.180Z,100.00
2023-03-04T09:08:31.419Z,100.00
2023-03-04T09:10:59.894Z,100.00
2023-03-04T09:13:30.124Z,100.00
2023-03-04T09:15:58.539Z,100.00
2023-03-04T09:18:28.317Z,100.00
2023-03-04T09:20:56.324Z,100.00
2023-03-04T09:23:24.288Z,100.00
2023-03-04T09:25:52.260Z,100.00
2023-03-04T09:28:20.456Z,100.00
2023-03-04T09:30:48.675Z,100.00
2023-03-04T09:33:17.041Z,100.00
2023-03-04T09:35:48.958Z,100.00
2023-03-04T09:38:16.903Z,100.00
2023-03-04T09:40:46.937Z,100.00
2023-03-04T09:43:21.993Z,100.00
2023-03-04T09:45:51.925Z,100.00
2023-03-04T09:48:23.098Z,100.00
2023-03-04T09:51:06.507Z,100.00
2023-03-04T09:53:38.467Z,100.00
2023-03-04T09:56:07.222Z,100.00
2023-03-04T09:58:44.728Z,100.00
2023-03-04T10:01:19.068Z,100.00
2023-03-04T10:03:49.419Z,100.00
2023-03-04T10:06:20.352Z,100.00
2023-03-04T10:08:53.629Z,100.00
2023-03-04T10:11:25.352Z,100.00
2023-03-04T10:13:59.226Z,100.00
2023-03-04T10:16:30.865Z,100.00
2023-03-04T10:19:03.324Z,100.00
2023-03-04T10:21:34.661Z,100.00
2023-03-04T10:24:03.376Z,100.00
2023-03-04T10:26:33.531Z,100.00
2023-03-04T10:29:03.111Z,100.00
2023-03-04T10:31:35.138Z,100.00
2023-03-04T10:34:05.078Z,100.00
2023-03-04T10:36:44.782Z,100.00
2023-03-04T10:39:14.644Z,100.00
2023-03-04T10:41:45.381Z,100.00
2023-03-04T10:44:17.507Z,100.00
2023-03-04T10:46:47.204Z,100.00
2023-03-04T10:49:16.362Z,100.00
2023-03-04T10:51:47.095Z,100.00
2023-03-04T10:54:23.937Z,100.00
2023-03-04T10:56:57.608Z,100.00
2023-03-04T10:59:40.600Z,100.00
2023-03-04T11:02:18.158Z,100.00
2023-03-04T11:04:51.150Z,100.00
2023-03-04T11:07:20.278Z,100.00
2023-03-04T11:09:48.611Z,100.00
2023-03-04T11:12:18.322Z,100.00
2023-03-04T11:14:49.245Z,100.00
2023-03-04T11:17:20.159Z,100.00
2023-03-04T11:19:49.540Z,100.00
2023-03-04T11:22:21.371Z,100.00
2023-03-04T11:24:56.628Z,100.00
2023-03-04T11:27:30.560Z,100.00
2023-03-04T11:30:01.855Z,100.00
2023-03-04T11:32:31.189Z,100.00
2023-03-04T11:35:02.552Z,100.00
2023-03-04T11:37:36.392Z,100.00
2023-03-04T11:40:10.675Z,100.00
2023-03-04T11:42:42.081Z,100.00
2023-03-04T11:45:27.853Z,100.00
2023-03-04T11:48:01.771Z,100.00
2023-03-04T11:50:31.968Z,100.00
2023-03-04T11:53:12.438Z,100.00
2023-03-04T11:55:45.345Z,100.00
2023-03-04T11:58:53.479Z,100.00
2023-03-04T12:01:26.538Z,100.00
2023-03-04T12:04:09.250Z,100.00
2023-03-04T12:06:46.490Z,100.00
2023-03-04T12:09:33.863Z,100.00
2023-03-04T12:12:09.134Z,100.00
2023-03-04T12:14:42.259Z,100.00
2023-03-04T12:17:39.813Z,100.00
2023-03-04T12:20:46.235Z,100.00
2023-03-04T12:23:27.484Z,100.00
2023-03-04T12:26:00.203Z,100.00
2023-03-04T12:28:38.794Z,100.00
2023-03-04T12:31:22.421Z,100.00
2023-03-04T12:33:59.834Z,100.00
2023-03-04T12:36:34.069Z,100.00
2023-03-04T12:39:10.171Z,100.00
2023-03-04T12:41:45.612Z,100.00
2023-03-04T12:44:20.359Z,100.00
2023-03-04T12:47:11.650Z,100.00
2023-03-04T12:49:50.468Z,100.00
2023-03-04T12:52:23.032Z,100.00
2023-03-04T12:54:55.445Z,100.00
2023-03-04T12:57:26.650Z,100.00
2023-03-04T13:00:00.736Z,100.00
2023-03-04T13:02:35.747Z,100.00
2023-03-04T13:05:19.161Z,100.00
2023-03-04T13:07:56.237Z,100.00
2023-03-04T13:10:25.583Z,100.00
2023-03-04T13:12:57.323Z,100.00
2023-03-04T13:15:36.864Z,82.95
2023-03-04T13:18:31.905Z,71.95
2023-03-04T13:21:08.851Z,67.11
2023-03-04T13:23:36.813Z,63.21
2023-03-04T13:26:21.389Z,57.56
2023-03-04T13:28:56.799Z,56.03
2023-03-04T13:31:27.781Z,53.74
2023-03-04T13:34:05.008Z,50.53
2023-03-04T13:36:49.336Z,47.69
2023-03-04T13:39:34.928Z,47.57
2023-03-04T13:42:04.097Z,48.43
2023-03-04T13:45:01.152Z,47.66
2023-03-04T13:47:40.936Z,49.03
2023-03-04T13:50:29.983Z,49.84
2023-03-04T13:53:01.964Z,49.82
2023-03-04T13:55:36.269Z,55.71
2023-03-04T13:58:16.447Z,58.57
2023-03-04T14:00:54.024Z,51.71
2023-03-04T14:03:24.915Z,50.33
2023-03-04T14:06:13.352Z,49.84
2023-03-04T14:08:41.342Z,49.88
2023-03-04T14:11:14.212Z,50.18
2023-03-04T14:13:42.211Z,52.47
2023-03-04T14:16:11.549Z,50.32
2023-03-04T14:18:39.577Z,53.38
2023-03-04T14:21:07.660Z,56.67
2023-03-04T14:23:37.210Z,54.16
2023-03-04T14:26:07.572Z,51.50
2023-03-04T14:28:43.769Z,49.61
2023-03-04T14:31:18.744Z,48.61
2023-03-04T14:33:49.623Z,48.67
2023-03-04T14:36:21.291Z,48.81
2023-03-04T14:38:54.380Z,49.66
2023-03-04T14:41:27.070Z,49.93
2023-03-04T14:43:59.457Z,48.22
2023-03-04T14:46:33.994Z,47.71
2023-03-04T14:49:02.005Z,48.24
2023-03-04T14:51:37.132Z,47.33
2023-03-04T14:54:05.477Z,49.66
2023-03-04T14:56:35.769Z,50.57
2023-03-04T14:59:04.018Z,47.90
2023-03-04T15:01:35.220Z,50.55
2023-03-04T15:04:04.790Z,47.61
2023-03-04T15:06:34.383Z,46.44
2023-03-04T15:09:04.799Z,46.90
2023-03-04T15:11:34.594Z,46.41
2023-03-04T15:14:02.789Z,45.94
2023-03-04T15:16:56.412Z,47.64
2023-03-04T15:19:29.228Z,47.14
2023-03-04T15:22:05.264Z,46.20
2023-03-04T15:24:35.069Z,46.40
2023-03-04T15:27:07.718Z,46.75
2023-03-04T15:29:35.720Z,44.46
2023-03-04T15:32:05.368Z,45.93
2023-03-04T15:34:33.356Z,45.69
2023-03-04T15:37:01.405Z,45.52
2023-03-04T15:39:29.440Z,45.27
2023-03-04T15:41:57.308Z,46.48
2023-03-04T15:44:25.224Z,46.64
2023-03-04T15:46:53.142Z,49.09
2023-03-04T15:49:22.670Z,50.48
2023-03-04T15:51:50.882Z,53.58
2023-03-04T15:54:18.948Z,56.99
2023-03-04T15:56:46.919Z,58.97
2023-03-04T15:59:18.304Z,61.47
2023-03-04T16:01:46.797Z,63.04
2023-03-04T16:04:15.849Z,60.37
2023-03-04T16:06:46.060Z,61.59
2023-03-04T16:09:16.750Z,67.60
2023-03-04T16:11:47.616Z,73.75
2023-03-04T16:14:16.360Z,77.92
2023-03-04T16:16:46.574Z,81.89
2023-03-04T16:19:14.651Z,87.97
2023-03-04T16:21:42.640Z,92.42
2023-03-04T16:24:17.141Z,94.32
2023-03-04T16:26:45.079Z,95.02
2023-03-04T16:29:12.970Z,97.60
2023-03-04T16:31:40.976Z,100.00
2023-03-04T16:34:08.963Z,99.09
2023-03-04T16:36:37.098Z,96.67
2023-03-04T16:39:09.363Z,96.37
2023-03-04T16:41:38.694Z,95.88
2023-03-04T16:44:09.151Z,95.34
2023-03-04T16:46:37.054Z,96.64
2023-03-04T16:49:05.042Z,96.34
2023-03-04T16:51:36.372Z,98.11
2023-03-04T16:54:04.467Z,100.00
2023-03-04T16:56:32.489Z,99.60
2023-03-04T16:59:01.837Z,100.00
2023-03-04T17:01:30.632Z,100.00
2023-03-04T17:03:59.776Z,100.00
2023-03-04T17:06:28.830Z,100.00
2023-03-04T17:08:56.735Z,100.00
2023-03-04T17:11:24.863Z,100.00
2023-03-04T17:13:53.122Z,100.00
2023-03-04T17:16:23.002Z,100.00
2023-03-04T17:18:51.398Z,100.00
2023-03-04T17:21:20.988Z,100.00
2023-03-04T17:23:49.213Z,100.00
2023-03-04T17:26:20.924Z,100.00
2023-03-04T17:28:49.363Z,100.00
2023-03-04T17:31:18.599Z,100.00
2023-03-04T17:33:48.702Z,100.00
2023-03-04T17:36:18.787Z,100.00
2023-03-04T17:38:46.858Z,100.00
2023-03-04T17:41:18.179Z,100.00
2023-03-04T17:43:47.722Z,100.00
2023-03-04T17:46:17.773Z,100.00
2023-03-04T17:48:47.481Z,100.00
2023-03-04T17:51:15.981Z,100.00
2023-03-04T17:53:43.984Z,100.00
2023-03-04T17:56:12.484Z,100.00
2023-03-04T17:58:40.972Z,100.00
2023-03-04T18:01:17.854Z,100.00
2023-03-04T18:03:50.072Z,100.00
2023-03-04T18:06:18.453Z,100.00
2023-03-04T18:08:46.618Z,100.00
2023-03-04T18:11:14.658Z,100.00
2023-03-04T18:13:43.336Z,100.00
2023-03-04T18:16:11.907Z,100.00
2023-03-04T18:18:39.970Z,100.00
2023-03-04T18:21:09.414Z,100.00
2023-03-04T18:23:37.568Z,100.00
2023-03-04T18:26:05.505Z,100.00
2023-03-04T18:28:33.632Z,100.00
2023-03-04T18:31:01.960Z,100.00
2023-03-04T18:33:31.048Z,100.00
2023-03-04T18:36:00.169Z,100.00
2023-03-04T18:38:29.989Z,100.00
2023-03-04T18:41:01.960Z,100.00
2023-03-04T18:43:30.037Z,100.00
2023-03-04T18:46:02.745Z,100.00
2023-03-04T18:48:32.235Z,100.00
2023-03-04T18:51:00.222Z,100.00
2023-03-04T18:53:30.835Z,100.00
2023-03-04T18:56:03.186Z,100.00
2023-03-04T18:58:34.542Z,100.00
2023-03-04T19:01:04.933Z,100.00
2023-03-04T19:03:34.432Z,100.00
2023-03-04T19:06:02.602Z,100.00
2023-03-04T19:08:31.917Z,100.00
2023-03-04T19:10:59.974Z,100.00
2023-03-04T19:13:30.530Z,100.00
2023-03-04T19:15:58.561Z,100.00
2023-03-04T19:18:26.597Z,100.00
2023-03-04T19:20:54.608Z,100.00
2023-03-04T19:23:22.591Z,100.00
2023-03-04T19:25:51.817Z,100.00
2023-03-04T19:28:20.072Z,100.00
2023-03-04T19:30:48.118Z,100.00
2023-03-04T19:33:16.061Z,100.00
2023-03-04T19:35:45.422Z,100.00
2023-03-04T19:38:13.821Z,100.00
2023-03-04T19:40:43.481Z,100.00
2023-03-04T19:43:12.964Z,100.00
2023-03-04T19:45:41.182Z,100.00
2023-03-04T19:48:10.419Z,100.00
2023-03-04T19:50:39.752Z,100.00
2023-03-04T19:53:07.683Z,100.00
2023-03-04T19:55:38.266Z,100.00
2023-03-04T19:58:06.200Z,100.00
2023-03-04T20:00:36.595Z,100.00
2023-03-04T20:03:07.699Z,100.00
2023-03-04T20:05:36.022Z,100.00
2023-03-04T20:08:04.114Z,100.00
2023-03-04T20:10:33.231Z,100.00
2023-03-04T20:13:01.288Z,100.00
2023-03-04T20:15:29.693Z,100.00
2023-03-04T20:17:58.993Z,100.00
2023-03-04T20:20:28.756Z,100.00
2023-03-04T20:22:57.098Z,100.00
2023-03-04T20:25:25.429Z,100.00
2023-03-04T20:27:53.274Z,100.00
2023-03-04T20:30:21.825Z,100.00
2023-03-04T20:32:49.877Z,100.00
2023-03-04T20:35:19.575Z,100.00
2023-03-04T20:37:47.659Z,100.00
2023-03-04T20:40:19.092Z,100.00
2023-03-04T20:42:47.164Z,100.00
2023-03-04T20:45:15.096Z,100.00
2023-03-04T20:47:43.037Z,100.00
2023-03-04T20:50:12.125Z,100.00
2023-03-04T20:52:41.480Z,100.00
2023-03-04T20:55:10.154Z,100.00
2023-03-04T20:57:38.439Z,100.00
2023-03-04T21:00:08.241Z,100.00
2023-03-04T21:02:36.202Z,100.00
2023-03-04T21:05:04.310Z,100.00
2023-03-04T21:07:32.209Z,100.00
2023-03-04T21:10:05.406Z,100.00
2023-03-04T21:12:33.413Z,100.00
2023-03-04T21:15:01.256Z,100.00
2023-03-04T21:17:29.241Z,100.00
2023-03-04T21:19:57.230Z,100.00
2023-03-04T21:22:26.897Z,100.00
2023-03-04T21:24:54.810Z,100.00
2023-03-04T21:27:24.248Z,100.00
2023-03-04T21:29:52.857Z,100.00
2023-03-04T21:32:25.430Z,100.00
2023-03-04T21:34:54.119Z,100.00
2023-03-04T21:37:22.538Z,100.00
2023-03-04T21:39:50.467Z,100.00
2023-03-04T21:42:18.477Z,100.00
2023-03-04T21:44:50.848Z,100.00
2023-03-04T21:47:19.634Z,100.00
2023-03-04T21:49:47.593Z,100.00
2023-03-04T21:52:15.645Z,100.00
2023-03-04T21:54:43.526Z,100.00
2023-03-04T21:57:11.639Z,100.00
2023-03-04T21:59:40.187Z,100.00
2023-03-04T22:02:15.493Z,100.00
2023-03-04T22:04:43.596Z,100.00
2023-03-04T22:07:11.618Z,100.00
2023-03-04T22:09:39.744Z,100.00
2023-03-04T22:12:08.032Z,100.00
2023-03-04T22:14:36.304Z,100.00
2023-03-04T22:17:04.284Z,100.00
2023-03-04T22:19:33.830Z,100.00
2023-03-04T22:22:01.756Z,100.00
2023-03-04T22:24:29.670Z,100.00
2023-03-04T22:26:59.813Z,100.00
2023-03-04T22:29:27.783Z,100.00
2023-03-04T22:31:55.794Z,100.00
2023-03-04T22:34:24.870Z,100.00
2023-03-04T22:36:54.161Z,100.00
2023-03-04T22:39:23.131Z,100.00
2023-03-04T22:41:51.160Z,100.00
2023-03-04T22:44:19.257Z,100.00
2023-03-04T22:46:47.135Z,100.00
2023-03-04T22:49:15.914Z,100.00
2023-03-04T22:51:44.838Z,100.00
2023-03-04T22:54:15.481Z,100.00
2023-03-04T22:56:43.421Z,100.00
2023-03-04T22:59:11.718Z,100.00
2023-03-04T23:01:39.793Z,100.00
2023-03-04T23:04:07.895Z,100.00
2023-03-04T23:06:37.681Z,100.00
2023-03-04T23:09:06.159Z,100.00
2023-03-04T23:11:36.593Z,100.00
2023-03-04T23:14:07.057Z,100.00
2023-03-04T23:16:37.310Z,100.00
2023-03-04T23:19:05.909Z,100.00
2023-03-04T23:21:34.650Z,100.00
2023-03-04T23:24:03.099Z,100.00
2023-03-04T23:26:33.327Z,100.00
2023-03-04T23:29:04.649Z,100.00
2023-03-04T23:31:34.252Z,100.00
2023-03-04T23:34:03.294Z,100.00
2023-03-04T23:36:33.472Z,100.00
2023-03-04T23:39:01.977Z,100.00
2023-03-04T23:41:31.340Z,100.00
2023-03-04T23:44:00.184Z,100.00
2023-03-04T23:46:29.970Z,100.00
2023-03-04T23:48:57.970Z,100.00
2023-03-04T23:51:29.477Z,100.00
2023-03-04T23:53:57.958Z,100.00
2023-03-04T23:56:27.644Z,100.00
2023-03-04T23:58:56.005Z,100.00
